DAH442 EGLL-DAAG
Flight info
| Callsign | DAH442 |
|---|---|
| Flight time | N/A |
| Altitude | 41000 |
| Route | MAXIT1G MAXIT Y803 MID L612 BENBO UY47 DRAKE L151 SITET UN859 SOPIL DCT BALAN DCT EVPOK DCT NARAK DCT GAI DCT LOMRA DCT ROCAN DCT PUMAL N859 GENIO N855 BUYAH DCT |
| Aircraft | A339/H-V/N |
Departure
| Time | 2026-05-04 07:54 |
|---|---|
| Airport | London Heathrow Airport (EGLL) |
Arrival
| Time | N/A |
|---|---|
| Airport | Houari Boumediene Airport (DAAG) |
| Time | Latitude | Longitude | Altitude | Speed | Heading |
|---|---|---|---|---|---|
| 2026-05-04 07:30 | 51.47268 | -0.44207 | 95 ft | 0 kts | 269° |
| 2026-05-04 07:45 | 51.47268 | -0.44191 | 96 ft | 2 kts | 269° |
| 2026-05-04 07:45 | 51.47268 | -0.44171 | 94 ft | 2 kts | 269° |
| 2026-05-04 07:45 | 51.47269 | -0.44150 | 93 ft | 2 kts | 269° |
| 2026-05-04 07:45 | 51.47269 | -0.44130 | 93 ft | 2 kts | 269° |
| 2026-05-04 07:46 | 51.47268 | -0.44109 | 93 ft | 2 kts | 258° |
| 2026-05-04 07:46 | 51.47270 | -0.44088 | 94 ft | 2 kts | 232° |
| 2026-05-04 07:46 | 51.47278 | -0.44071 | 94 ft | 2 kts | 210° |
| 2026-05-04 07:46 | 51.47291 | -0.44059 | 94 ft | 0 kts | 184° |
| 2026-05-04 07:49 | 51.47282 | -0.44060 | 95 ft | 5 kts | 184° |
| 2026-05-04 07:49 | 51.47186 | -0.44059 | 96 ft | 22 kts | 179° |
| 2026-05-04 07:49 | 51.47015 | -0.44057 | 96 ft | 25 kts | 180° |
| 2026-05-04 07:50 | 51.46905 | -0.44056 | 98 ft | 4 kts | 178° |
| 2026-05-04 07:50 | 51.46867 | -0.44054 | 98 ft | 7 kts | 178° |
| 2026-05-04 07:50 | 51.46809 | -0.44054 | 96 ft | 10 kts | 182° |
| 2026-05-04 07:50 | 51.46710 | -0.44056 | 91 ft | 17 kts | 176° |
| 2026-05-04 07:51 | 51.46670 | -0.43961 | 93 ft | 10 kts | 98° |
| 2026-05-04 07:51 | 51.46667 | -0.43847 | 92 ft | 11 kts | 89° |
| 2026-05-04 07:51 | 51.46667 | -0.43698 | 93 ft | 15 kts | 91° |
| 2026-05-04 07:51 | 51.46607 | -0.43613 | 95 ft | 11 kts | 176° |
| 2026-05-04 07:52 | 51.46516 | -0.43613 | 95 ft | 14 kts | 196° |
| 2026-05-04 07:52 | 51.46498 | -0.43664 | 96 ft | 5 kts | 255° |
| 2026-05-04 07:52 | 51.46495 | -0.43779 | 94 ft | 28 kts | 268° |
| 2026-05-04 07:52 | 51.46493 | -0.44585 | 98 ft | 114 kts | 269° |
| 2026-05-04 07:53 | 51.46489 | -0.46250 | 166 ft | 175 kts | 271° |
| 2026-05-04 07:54 | 51.46169 | -0.52580 | 2445 ft | 198 kts | 259° |